Time;durP1;ratioP1;P1;durP2;ratioP2;P2;SDS_P1;SDS_P2;PMS_P1;PMS_P2;Temp;Humidity;BMP_temperature;BMP_pressure;BME280_temperature;BME280_humidity;BME280_pressure;Samples;Min_cycle;Max_cycle;Signal;HPM_P1;HPM_P2
2023/05/29 00:01:31;;;;;;;;;;;14.50;99.90;;;;;;5095506;28;20583;-64
2023/05/29 00:03:58;;;;;;;;;;;14.60;99.90;;;;;;5103774;28;19912;-62
2023/05/29 00:06:24;;;;;;;;;;;14.80;99.90;;;;;;5110683;28;19965;-65
2023/05/29 00:08:51;;;;;;;;;;;14.80;99.90;;;;;;5105112;28;19912;-66
2023/05/29 00:11:17;;;;;;;;;;;15.00;99.90;;;;;;5107049;28;20433;-67
2023/05/29 00:13:44;;;;;;;;;;;15.10;99.90;;;;;;5113126;28;19943;-66
2023/05/29 00:16:11;;;;;;;;;;;15.30;99.90;;;;;;5099939;28;20101;-65
2023/05/29 00:18:44;;;;;;;;;;;15.40;99.90;;;;;;5105468;28;19964;-64
2023/05/29 00:21:13;;;;;;;;;;;15.50;99.90;;;;;;5095114;28;19963;-64
2023/05/29 00:23:39;;;;;;;;;;;15.60;99.90;;;;;;5108567;28;19976;-66
2023/05/29 00:26:06;;;;;;;;;;;15.70;99.90;;;;;;5106716;28;20010;-66
2023/05/29 00:28:36;;;;;;;;;;;15.80;99.50;;;;;;5106258;28;19933;-63
2023/05/29 00:31:02;;;;;;;;;;;15.90;99.50;;;;;;5112196;28;19945;-63
2023/05/29 00:33:29;;;;;;;;;;;16.00;99.30;;;;;;5112240;28;20402;-62
2023/05/29 00:35:56;;;;;;;;;;;16.10;99.40;;;;;;5106814;28;19912;-66
2023/05/29 00:38:22;;;;;;;;;;;16.20;98.80;;;;;;5095519;28;20010;-63
2023/05/29 00:40:49;;;;;;;;;;;16.30;98.80;;;;;;5102574;28;19919;-66
2023/05/29 00:43:16;;;;;;;;;;;16.40;98.70;;;;;;5105605;28;19919;-66
2023/05/29 00:45:42;;;;;;;;;;;16.50;98.80;;;;;;5109452;28;19964;-64
2023/05/29 00:48:09;;;;;;;;;;;16.50;97.90;;;;;;5091809;28;20388;-63
2023/05/29 00:50:35;;;;;;;;;;;16.50;97.90;;;;;;5101734;28;20338;-66
2023/05/29 00:53:02;;;;;;;;;;;16.50;98.00;;;;;;5100807;28;19915;-63
2023/05/29 00:55:30;;;;;;;;;;;16.70;98.20;;;;;;5113482;28;20007;-64
2023/05/29 00:57:57;;;;;;;;;;;16.80;97.80;;;;;;5112453;28;19915;-64
2023/05/29 01:00:24;;;;;;;;;;;16.90;97.00;;;;;;5109087;28;19918;-63
2023/05/29 01:02:52;;;;;;;;;;;17.00;96.80;;;;;;5100016;28;20002;-66
2023/05/29 01:05:19;;;;;;;;;;;17.20;97.00;;;;;;5093386;28;19916;-66
2023/05/29 01:07:46;;;;;;;;;;;17.20;96.70;;;;;;5102337;28;19915;-65
2023/05/29 01:10:13;;;;;;;;;;;17.20;96.40;;;;;;5105771;27;19927;-65
2023/05/29 01:13:08;;;;;;;;;;;17.20;96.50;;;;;;5097962;28;20387;-64
2023/05/29 01:15:50;;;;;;;;;;;17.30;96.30;;;;;;5089117;28;19919;-64
2023/05/29 01:18:24;;;;;;;;;;;17.20;96.30;;;;;;5104514;28;19926;-67
2023/05/29 01:21:08;;;;;;;;;;;17.40;96.70;;;;;;5109618;28;19959;-66
2023/05/29 01:23:38;;;;;;;;;;;17.50;96.30;;;;;;5099379;28;19916;-66
2023/05/29 01:26:08;;;;;;;;;;;17.60;95.90;;;;;;5103856;28;19935;-67
2023/05/29 01:28:41;;;;;;;;;;;17.70;95.80;;;;;;5097447;28;20323;-66
2023/05/29 01:31:07;;;;;;;;;;;17.90;95.40;;;;;;5102629;28;19920;-67
2023/05/29 01:33:34;;;;;;;;;;;17.90;95.30;;;;;;5107466;28;19915;-65
2023/05/29 01:36:00;;;;;;;;;;;18.10;95.60;;;;;;5105214;28;19919;-67
2023/05/29 01:38:27;;;;;;;;;;;18.20;94.70;;;;;;5111556;28;19911;-65
2023/05/29 01:40:54;;;;;;;;;;;18.30;94.60;;;;;;5111551;27;20002;-68
2023/05/29 01:43:21;;;;;;;;;;;18.30;94.50;;;;;;5111978;28;19916;-65
2023/05/29 01:45:47;;;;;;;;;;;18.30;94.50;;;;;;5112734;28;20015;-65
2023/05/29 01:48:14;;;;;;;;;;;18.40;94.40;;;;;;5111863;28;19908;-63
2023/05/29 01:50:43;;;;;;;;;;;18.60;94.20;;;;;;5112442;28;19934;-65
2023/05/29 01:53:10;;;;;;;;;;;18.70;94.10;;;;;;5112873;28;19916;-64
2023/05/29 01:55:36;;;;;;;;;;;18.80;93.70;;;;;;5112914;28;19908;-62
2023/05/29 01:58:04;;;;;;;;;;;18.90;93.50;;;;;;5111985;28;19907;-65
2023/05/29 02:00:32;;;;;;;;;;;18.80;93.40;;;;;;5101894;28;19915;-65
2023/05/29 02:02:58;;;;;;;;;;;18.70;93.60;;;;;;5110355;28;19908;-65
2023/05/29 02:05:25;;;;;;;;;;;18.70;93.50;;;;;;5108585;28;19908;-63
2023/05/29 02:07:51;;;;;;;;;;;18.80;93.60;;;;;;5109750;28;20351;-63
2023/05/29 02:10:18;;;;;;;;;;;18.80;93.20;;;;;;5110521;28;19911;-63
2023/05/29 02:12:45;;;;;;;;;;;18.90;93.00;;;;;;5106715;28;20335;-64
2023/05/29 02:15:11;;;;;;;;;;;19.00;93.00;;;;;;5099148;28;20392;-66
2023/05/29 02:17:38;;;;;;;;;;;19.10;92.60;;;;;;5095064;28;19992;-62
2023/05/29 02:20:05;;;;;;;;;;;19.10;92.50;;;;;;5102371;28;20371;-65
2023/05/29 02:22:31;;;;;;;;;;;19.10;92.80;;;;;;5105373;28;19911;-63
2023/05/29 02:24:58;;;;;;;;;;;19.20;92.40;;;;;;5099618;28;20376;-64
2023/05/29 02:27:25;;;;;;;;;;;19.30;92.10;;;;;;5106657;28;19918;-64
2023/05/29 02:29:51;;;;;;;;;;;19.40;92.10;;;;;;5102105;28;19919;-65
2023/05/29 02:32:18;;;;;;;;;;;19.50;91.90;;;;;;5112598;28;19972;-63
2023/05/29 02:34:45;;;;;;;;;;;19.60;91.70;;;;;;5112207;28;19908;-63
2023/05/29 02:37:12;;;;;;;;;;;19.70;91.40;;;;;;5112717;28;19922;-65
2023/05/29 02:39:38;;;;;;;;;;;19.70;91.20;;;;;;5109490;28;19908;-63
2023/05/29 02:42:05;;;;;;;;;;;19.80;91.40;;;;;;5099590;28;19920;-63
2023/05/29 02:44:32;;;;;;;;;;;20.00;91.20;;;;;;5111706;28;19907;-64
2023/05/29 02:46:59;;;;;;;;;;;20.30;91.50;;;;;;5113543;28;19950;-63
2023/05/29 02:49:25;;;;;;;;;;;20.80;91.20;;;;;;5115427;28;19908;-64
2023/05/29 02:51:56;;;;;;;;;;;21.40;90.50;;;;;;5101948;28;19919;-61
2023/05/29 02:54:26;;;;;;;;;;;22.40;87.50;;;;;;5116522;28;19947;-63
2023/05/29 02:56:53;;;;;;;;;;;23.40;84.40;;;;;;5116756;28;19914;-65
2023/05/29 02:59:19;;;;;;;;;;;23.90;81.70;;;;;;5116423;28;20396;-66
2023/05/29 03:01:47;;;;;;;;;;;24.60;79.80;;;;;;5098438;28;19908;-65
2023/05/29 03:04:14;;;;;;;;;;;24.40;79.00;;;;;;5111010;28;20365;-66
2023/05/29 03:06:41;;;;;;;;;;;24.80;79.30;;;;;;5103664;28;19908;-64
2023/05/29 03:09:08;;;;;;;;;;;25.00;77.60;;;;;;5100624;28;19943;-66
2023/05/29 03:11:36;;;;;;;;;;;25.30;77.20;;;;;;5117247;27;19923;-64
2023/05/29 03:14:03;;;;;;;;;;;25.70;75.10;;;;;;5115732;28;20356;-65
2023/05/29 03:16:29;;;;;;;;;;;25.90;74.40;;;;;;5101271;28;19912;-64
2023/05/29 03:18:56;;;;;;;;;;;25.70;71.30;;;;;;5106206;28;20288;-66
2023/05/29 03:21:23;;;;;;;;;;;25.10;72.90;;;;;;5115680;28;19908;-66
2023/05/29 03:23:50;;;;;;;;;;;24.50;73.20;;;;;;5115224;28;20292;-65
2023/05/29 03:26:16;;;;;;;;;;;24.30;74.60;;;;;;5115474;28;19919;-66
2023/05/29 03:28:43;;;;;;;;;;;24.20;73.80;;;;;;5115031;28;19908;-65
2023/05/29 03:31:10;;;;;;;;;;;24.20;74.00;;;;;;5111595;28;20014;-67
2023/05/29 03:33:36;;;;;;;;;;;24.70;73.30;;;;;;5115079;28;20541;-68
2023/05/29 03:36:03;;;;;;;;;;;25.70;71.30;;;;;;5106266;28;20284;-67
2023/05/29 03:38:30;;;;;;;;;;;26.70;69.20;;;;;;5096754;28;19964;-66
2023/05/29 03:40:56;;;;;;;;;;;26.80;67.30;;;;;;5101653;28;19911;-67
2023/05/29 03:43:23;;;;;;;;;;;26.30;67.60;;;;;;5111285;28;19923;-65
2023/05/29 03:45:50;;;;;;;;;;;26.00;67.40;;;;;;5115300;28;19959;-65
2023/05/29 03:48:16;;;;;;;;;;;26.50;67.40;;;;;;5107083;28;19919;-65
2023/05/29 03:50:43;;;;;;;;;;;27.50;66.20;;;;;;5112923;28;19919;-64
2023/05/29 03:53:09;;;;;;;;;;;28.90;64.60;;;;;;5113141;28;19907;-65
2023/05/29 03:55:36;;;;;;;;;;;30.10;61.90;;;;;;5112597;28;19923;-62
2023/05/29 03:58:03;;;;;;;;;;;30.30;61.40;;;;;;5113131;28;20483;-65
2023/05/29 04:00:30;;;;;;;;;;;31.00;59.60;;;;;;5104173;28;19911;-66
2023/05/29 04:02:59;;;;;;;;;;;31.30;58.60;;;;;;5112898;28;19934;-67
2023/05/29 04:05:26;;;;;;;;;;;31.20;57.50;;;;;;5114077;28;20368;-67
2023/05/29 04:07:52;;;;;;;;;;;31.00;57.80;;;;;;5115251;28;19908;-67
2023/05/29 04:10:19;;;;;;;;;;;30.70;57.90;;;;;;5110679;28;20257;-65
2023/05/29 04:12:46;;;;;;;;;;;29.90;58.60;;;;;;5110223;28;19912;-67
2023/05/29 04:15:12;;;;;;;;;;;28.70;59.70;;;;;;5105446;28;19908;-65
2023/05/29 04:17:39;;;;;;;;;;;27.10;61.70;;;;;;5090724;28;19912;-66
2023/05/29 04:20:08;;;;;;;;;;;25.70;63.50;;;;;;5090019;28;19912;-69
2023/05/29 04:22:38;;;;;;;;;;;24.60;65.10;;;;;;5091286;28;19914;-64
2023/05/29 04:25:05;;;;;;;;;;;23.70;66.60;;;;;;5092527;28;19938;-67
2023/05/29 04:27:37;;;;;;;;;;;22.90;67.60;;;;;;5099788;28;19911;-66
2023/05/29 04:30:05;;;;;;;;;;;22.30;68.50;;;;;;5112266;28;20429;-67
2023/05/29 04:32:32;;;;;;;;;;;21.80;69.00;;;;;;5102646;28;19915;-67
2023/05/29 04:35:02;;;;;;;;;;;21.60;70.30;;;;;;5107212;28;20307;-63
2023/05/29 04:37:29;;;;;;;;;;;21.40;69.90;;;;;;5111645;28;20247;-68
2023/05/29 04:39:57;;;;;;;;;;;21.30;69.70;;;;;;5111003;28;19954;-67
2023/05/29 04:42:24;;;;;;;;;;;21.00;69.90;;;;;;5107613;28;19980;-64
2023/05/29 04:44:54;;;;;;;;;;;20.80;70.40;;;;;;5107838;28;19916;-66
2023/05/29 04:47:22;;;;;;;;;;;20.80;71.00;;;;;;5114034;28;20271;-67
2023/05/29 04:49:50;;;;;;;;;;;20.70;72.20;;;;;;5112931;28;20010;-66
2023/05/29 04:52:16;;;;;;;;;;;20.70;72.10;;;;;;5112792;28;19919;-66
2023/05/29 04:54:43;;;;;;;;;;;20.70;72.40;;;;;;5112880;28;19908;-66
2023/05/29 04:57:10;;;;;;;;;;;20.60;71.80;;;;;;5113391;28;19912;-64
2023/05/29 04:59:37;;;;;;;;;;;20.60;71.30;;;;;;5108566;28;19912;-66
2023/05/29 05:02:03;;;;;;;;;;;20.60;72.10;;;;;;5110145;28;20404;-67
2023/05/29 05:04:30;;;;;;;;;;;20.50;72.30;;;;;;5112355;28;19911;-67
2023/05/29 05:06:57;;;;;;;;;;;20.50;72.40;;;;;;5111488;28;19920;-67
2023/05/29 05:09:24;;;;;;;;;;;20.80;72.70;;;;;;5102701;28;19912;-64
2023/05/29 05:11:50;;;;;;;;;;;20.90;70.40;;;;;;5113234;28;19919;-67
2023/05/29 05:14:17;;;;;;;;;;;21.10;70.00;;;;;;5099013;28;19923;-63
2023/05/29 05:16:44;;;;;;;;;;;21.20;70.00;;;;;;5100780;28;19904;-62
2023/05/29 05:19:11;;;;;;;;;;;21.10;69.70;;;;;;5108178;28;19927;-67
2023/05/29 05:21:37;;;;;;;;;;;20.90;70.00;;;;;;5105772;28;20002;-65
2023/05/29 05:24:04;;;;;;;;;;;20.70;70.90;;;;;;5104904;28;19950;-65
2023/05/29 05:26:31;;;;;;;;;;;20.60;70.90;;;;;;5111898;28;19908;-65
2023/05/29 05:28:57;;;;;;;;;;;20.70;71.60;;;;;;5112429;28;19915;-66
2023/05/29 05:31:25;;;;;;;;;;;20.80;70.90;;;;;;5111730;28;19916;-64
2023/05/29 05:33:51;;;;;;;;;;;20.90;70.50;;;;;;5101264;28;19939;-64
2023/05/29 05:36:18;;;;;;;;;;;21.20;70.50;;;;;;5085517;28;19912;-65
2023/05/29 05:38:45;;;;;;;;;;;21.50;70.00;;;;;;5112479;28;20006;-66
2023/05/29 05:41:12;;;;;;;;;;;21.50;69.80;;;;;;5104303;28;20000;-64
2023/05/29 05:43:38;;;;;;;;;;;21.50;69.30;;;;;;5112743;28;19912;-65
2023/05/29 05:46:05;;;;;;;;;;;21.60;70.00;;;;;;5111656;28;19961;-67
2023/05/29 05:48:32;;;;;;;;;;;21.60;69.80;;;;;;5108530;28;19965;-67
2023/05/29 05:50:58;;;;;;;;;;;21.70;69.80;;;;;;5103675;28;20014;-66
2023/05/29 05:53:25;;;;;;;;;;;21.70;69.30;;;;;;5102306;28;19912;-68
2023/05/29 05:55:51;;;;;;;;;;;21.60;69.90;;;;;;5103657;28;19908;-67
2023/05/29 05:58:18;;;;;;;;;;;21.90;68.60;;;;;;5106824;28;19918;-67
2023/05/29 06:00:45;;;;;;;;;;;22.00;69.10;;;;;;5106693;28;19913;-66
2023/05/29 06:03:11;;;;;;;;;;;22.10;68.30;;;;;;5092030;28;19915;-68
2023/05/29 06:05:40;;;;;;;;;;;22.10;68.30;;;;;;5091280;28;20272;-63
2023/05/29 06:08:08;;;;;;;;;;;22.20;67.80;;;;;;5103600;28;19999;-66
2023/05/29 06:10:34;;;;;;;;;;;22.30;67.40;;;;;;5101445;28;19951;-66
2023/05/29 06:13:01;;;;;;;;;;;22.30;67.40;;;;;;5099619;28;20010;-66
2023/05/29 06:15:28;;;;;;;;;;;21.90;67.90;;;;;;5104699;28;19924;-61
2023/05/29 06:17:55;;;;;;;;;;;21.50;68.60;;;;;;5094444;28;19975;-66
2023/05/29 06:20:25;;;;;;;;;;;21.00;69.80;;;;;;5104419;28;20390;-65
2023/05/29 06:22:52;;;;;;;;;;;20.60;70.90;;;;;;5102050;28;19912;-66
2023/05/29 06:25:19;;;;;;;;;;;20.20;71.60;;;;;;5107900;28;19907;-67
2023/05/29 06:27:46;;;;;;;;;;;19.80;72.80;;;;;;5091717;28;19922;-68
2023/05/29 06:30:13;;;;;;;;;;;19.60;73.40;;;;;;5108613;28;19907;-68
2023/05/29 06:32:40;;;;;;;;;;;19.30;74.00;;;;;;5107734;28;20006;-66
2023/05/29 06:35:07;;;;;;;;;;;19.10;74.80;;;;;;5108476;28;19919;-68
2023/05/29 06:37:33;;;;;;;;;;;19.00;74.50;;;;;;5110431;28;20077;-68
2023/05/29 06:40:00;;;;;;;;;;;18.80;73.90;;;;;;5110937;28;20376;-66
2023/05/29 06:42:26;;;;;;;;;;;18.60;74.00;;;;;;5110998;28;20333;-67
2023/05/29 06:44:53;;;;;;;;;;;18.50;74.50;;;;;;5109512;28;21311;-66
2023/05/29 06:47:20;;;;;;;;;;;18.30;74.80;;;;;;5104702;28;19919;-66
2023/05/29 06:49:46;;;;;;;;;;;18.20;75.00;;;;;;5110093;28;19911;-66
2023/05/29 06:52:13;;;;;;;;;;;18.10;75.50;;;;;;5106562;28;20292;-65
2023/05/29 06:54:40;;;;;;;;;;;17.90;75.70;;;;;;5109851;28;19912;-65
2023/05/29 06:57:06;;;;;;;;;;;17.80;76.10;;;;;;5110262;28;19908;-66
2023/05/29 06:59:33;;;;;;;;;;;17.70;76.20;;;;;;5110029;28;20383;-66
2023/05/29 07:02:00;;;;;;;;;;;17.60;76.50;;;;;;5104556;28;19915;-66
2023/05/29 07:04:26;;;;;;;;;;;17.50;76.90;;;;;;5113505;28;19919;-66
2023/05/29 07:06:53;;;;;;;;;;;17.40;77.90;;;;;;5109938;28;19950;-65
2023/05/29 07:09:20;;;;;;;;;;;17.40;77.20;;;;;;5091264;28;19923;-64
2023/05/29 07:11:46;;;;;;;;;;;17.30;77.30;;;;;;5101624;28;20324;-66
2023/05/29 07:14:14;;;;;;;;;;;17.30;77.50;;;;;;5111024;28;19954;-67
2023/05/29 07:16:40;;;;;;;;;;;17.30;77.80;;;;;;5111301;28;19995;-66
2023/05/29 07:19:07;;;;;;;;;;;17.20;78.10;;;;;;5109537;28;19908;-66
2023/05/29 07:21:33;;;;;;;;;;;17.10;78.10;;;;;;5111906;28;20315;-66
2023/05/29 07:24:00;;;;;;;;;;;17.00;78.40;;;;;;5105191;28;19912;-66
2023/05/29 07:26:27;;;;;;;;;;;17.00;78.60;;;;;;5072523;28;19908;-66
2023/05/29 07:28:54;;;;;;;;;;;16.90;78.80;;;;;;5111208;28;19908;-66
2023/05/29 07:31:20;;;;;;;;;;;16.80;79.20;;;;;;5114461;28;20023;-67
2023/05/29 07:33:47;;;;;;;;;;;16.70;79.60;;;;;;5096091;28;19918;-66
2023/05/29 07:36:17;;;;;;;;;;;16.70;79.70;;;;;;5094361;28;19912;-68
2023/05/29 07:38:43;;;;;;;;;;;16.60;80.00;;;;;;5096883;28;19908;-65
2023/05/29 07:41:10;;;;;;;;;;;16.50;80.10;;;;;;5115338;28;19980;-65
2023/05/29 07:43:37;;;;;;;;;;;16.50;80.40;;;;;;5108785;28;19913;-66
2023/05/29 07:46:03;;;;;;;;;;;16.40;80.60;;;;;;5094941;28;19908;-65
2023/05/29 07:48:30;;;;;;;;;;;16.40;80.90;;;;;;5111077;28;19912;-66
2023/05/29 07:50:57;;;;;;;;;;;16.30;80.90;;;;;;5113592;28;19963;-65
2023/05/29 07:53:24;;;;;;;;;;;16.30;80.90;;;;;;5109651;28;19912;-66
2023/05/29 07:55:50;;;;;;;;;;;16.40;81.10;;;;;;5095051;28;19909;-65
2023/05/29 07:58:17;;;;;;;;;;;16.30;80.80;;;;;;5094781;28;19908;-66
2023/05/29 08:00:44;;;;;;;;;;;16.30;81.00;;;;;;5098243;28;19911;-66
2023/05/29 08:03:11;;;;;;;;;;;16.30;80.40;;;;;;5114445;28;20000;-66
2023/05/29 08:05:38;;;;;;;;;;;16.40;80.20;;;;;;5114650;28;19958;-65
2023/05/29 08:08:05;;;;;;;;;;;16.40;80.00;;;;;;5114462;28;20011;-63
2023/05/29 08:10:32;;;;;;;;;;;16.40;80.00;;;;;;5114042;28;19927;-64
2023/05/29 08:12:58;;;;;;;;;;;16.30;80.30;;;;;;5114999;28;20463;-67
2023/05/29 08:15:26;;;;;;;;;;;16.30;79.80;;;;;;5113894;28;19963;-67
2023/05/29 08:17:53;;;;;;;;;;;16.40;79.80;;;;;;5114577;28;20417;-67
2023/05/29 08:20:20;;;;;;;;;;;16.40;79.90;;;;;;5114695;28;20427;-66
2023/05/29 08:22:47;;;;;;;;;;;16.30;80.10;;;;;;5114332;28;19946;-63
2023/05/29 08:25:13;;;;;;;;;;;16.20;80.00;;;;;;5109095;28;19912;-64
2023/05/29 08:27:40;;;;;;;;;;;16.20;80.60;;;;;;5094805;28;19915;-66
2023/05/29 08:30:07;;;;;;;;;;;16.20;80.70;;;;;;5093864;28;19908;-66
2023/05/29 08:32:34;;;;;;;;;;;16.10;80.60;;;;;;5110171;28;20007;-66
2023/05/29 08:35:01;;;;;;;;;;;16.10;80.80;;;;;;5113244;28;19912;-66
2023/05/29 08:37:27;;;;;;;;;;;16.00;81.00;;;;;;5114577;28;19908;-67
2023/05/29 08:39:54;;;;;;;;;;;16.00;81.10;;;;;;5105897;28;19957;-66
2023/05/29 08:42:22;;;;;;;;;;;16.00;81.40;;;;;;5096060;28;19980;-67
2023/05/29 08:44:49;;;;;;;;;;;15.90;81.90;;;;;;5092183;28;19908;-65
2023/05/29 08:47:20;;;;;;;;;;;15.80;81.60;;;;;;5091814;28;19930;-67
2023/05/29 08:49:52;;;;;;;;;;;15.80;81.90;;;;;;5093923;28;19908;-65
2023/05/29 08:52:24;;;;;;;;;;;15.80;82.20;;;;;;5103577;28;19924;-66
2023/05/29 08:54:52;;;;;;;;;;;15.70;82.50;;;;;;5105840;28;19908;-67
2023/05/29 08:57:20;;;;;;;;;;;15.70;82.70;;;;;;5099213;28;19915;-65
2023/05/29 08:59:49;;;;;;;;;;;15.50;83.10;;;;;;5101938;28;19912;-66
2023/05/29 09:02:15;;;;;;;;;;;15.50;83.40;;;;;;5094871;28;20059;-66
2023/05/29 09:04:45;;;;;;;;;;;15.40;83.80;;;;;;5113831;28;19907;-65
2023/05/29 09:07:14;;;;;;;;;;;15.40;84.20;;;;;;5113705;28;20364;-64
2023/05/29 09:09:41;;;;;;;;;;;15.30;84.90;;;;;;5113784;28;19912;-64
2023/05/29 09:12:09;;;;;;;;;;;15.20;85.50;;;;;;5113292;28;20279;-65
2023/05/29 09:14:37;;;;;;;;;;;15.10;85.40;;;;;;5113756;28;20414;-66
2023/05/29 09:17:05;;;;;;;;;;;15.10;86.00;;;;;;5113502;28;19915;-65
2023/05/29 09:19:32;;;;;;;;;;;15.00;86.80;;;;;;5112922;28;19965;-64
2023/05/29 09:22:09;;;;;;;;;;;14.90;87.20;;;;;;5113439;28;19912;-65
2023/05/29 09:24:37;;;;;;;;;;;14.90;87.60;;;;;;5113031;28;19920;-64
2023/05/29 09:27:04;;;;;;;;;;;14.80;87.70;;;;;;5112252;28;19908;-66
2023/05/29 09:29:37;;;;;;;;;;;14.70;88.00;;;;;;5113909;28;19960;-64
2023/05/29 09:32:08;;;;;;;;;;;14.70;88.70;;;;;;5113591;28;20364;-65
2023/05/29 09:34:35;;;;;;;;;;;14.70;89.50;;;;;;5113409;28;19958;-66
2023/05/29 09:37:08;;;;;;;;;;;14.60;90.10;;;;;;5113234;28;20389;-65
2023/05/29 09:39:55;;;;;;;;;;;14.50;90.20;;;;;;5112866;28;19912;-66
2023/05/29 09:42:21;;;;;;;;;;;14.50;89.80;;;;;;5106565;28;19927;-67
2023/05/29 09:44:53;;;;;;;;;;;14.40;90.50;;;;;;5105434;28;19919;-67
2023/05/29 09:47:20;;;;;;;;;;;14.30;90.50;;;;;;5113378;28;19912;-68
2023/05/29 09:49:47;;;;;;;;;;;14.30;91.00;;;;;;5113192;28;19915;-66
2023/05/29 09:52:17;;;;;;;;;;;14.20;90.80;;;;;;5112096;28;20372;-66
2023/05/29 09:54:47;;;;;;;;;;;14.20;90.70;;;;;;5112928;28;19907;-66
2023/05/29 09:57:14;;;;;;;;;;;14.20;90.40;;;;;;5113231;28;19908;-66
2023/05/29 09:59:43;;;;;;;;;;;14.10;90.10;;;;;;5112601;28;19908;-67
2023/05/29 10:02:12;;;;;;;;;;;14.20;89.70;;;;;;5112526;28;19912;-66
2023/05/29 10:04:40;;;;;;;;;;;14.30;89.10;;;;;;5111091;28;21089;-67
2023/05/29 10:07:27;;;;;;;;;;;14.40;88.90;;;;;;5092184;28;19920;-65
2023/05/29 10:10:00;;;;;;;;;;;14.40;88.80;;;;;;5091968;28;19912;-67
2023/05/29 10:12:30;;;;;;;;;;;14.40;88.30;;;;;;5110689;28;19915;-66
2023/05/29 10:14:58;;;;;;;;;;;14.40;88.50;;;;;;5094989;28;20318;-65
2023/05/29 10:17:27;;;;;;;;;;;14.40;88.50;;;;;;5112711;28;19908;-67
2023/05/29 10:19:54;;;;;;;;;;;14.40;89.60;;;;;;5111698;28;19907;-65
2023/05/29 10:22:21;;;;;;;;;;;14.30;90.30;;;;;;5111954;28;19908;-66
2023/05/29 10:24:50;;;;;;;;;;;14.20;90.40;;;;;;5111952;28;19947;-66
2023/05/29 10:27:18;;;;;;;;;;;14.20;90.60;;;;;;5112349;28;19908;-66
2023/05/29 10:29:53;;;;;;;;;;;14.10;91.00;;;;;;5112036;28;19980;-65
2023/05/29 10:32:26;;;;;;;;;;;14.00;91.50;;;;;;5111948;28;19928;-67
2023/05/29 10:35:09;;;;;;;;;;;13.90;91.70;;;;;;5112610;28;19910;-67
2023/05/29 10:37:35;;;;;;;;;;;13.80;91.60;;;;;;5112480;28;19912;-65
2023/05/29 10:40:07;;;;;;;;;;;13.70;92.00;;;;;;5112122;28;20356;-62
2023/05/29 10:42:39;;;;;;;;;;;13.60;92.60;;;;;;5111526;28;20387;-64
2023/05/29 10:45:06;;;;;;;;;;;13.60;93.00;;;;;;5107052;28;19911;-65
2023/05/29 10:47:32;;;;;;;;;;;13.50;93.10;;;;;;5112211;28;19911;-66
2023/05/29 10:50:03;;;;;;;;;;;13.40;93.30;;;;;;5112160;28;19911;-65
2023/05/29 10:52:33;;;;;;;;;;;13.30;93.90;;;;;;5112031;28;19993;-64
2023/05/29 10:55:03;;;;;;;;;;;13.30;94.20;;;;;;5111595;28;19923;-64
2023/05/29 10:57:30;;;;;;;;;;;13.10;94.50;;;;;;5112755;28;20376;-64
2023/05/29 11:00:04;;;;;;;;;;;13.10;94.80;;;;;;5109626;28;20329;-63
2023/05/29 11:02:30;;;;;;;;;;;13.00;95.20;;;;;;5110494;28;19912;-64
2023/05/29 11:05:15;;;;;;;;;;;12.90;95.50;;;;;;5113210;28;19934;-64
2023/05/29 11:07:54;;;;;;;;;;;12.90;95.90;;;;;;5116703;28;19908;-64
2023/05/29 11:10:39;;;;;;;;;;;12.80;95.90;;;;;;5116002;28;20437;-64
2023/05/29 11:13:07;;;;;;;;;;;12.70;96.10;;;;;;5116807;28;19912;-64
2023/05/29 11:15:34;;;;;;;;;;;12.60;96.40;;;;;;5116593;28;19912;-65
2023/05/29 11:18:12;;;;;;;;;;;12.50;96.80;;;;;;5115817;28;20019;-64
2023/05/29 11:21:06;;;;;;;;;;;12.50;96.90;;;;;;5116195;28;19966;-64
2023/05/29 11:23:32;;;;;;;;;;;12.50;97.10;;;;;;5109810;28;19919;-64
2023/05/29 11:25:59;;;;;;;;;;;12.40;96.90;;;;;;5108235;28;20318;-63
2023/05/29 11:28:27;;;;;;;;;;;12.40;96.50;;;;;;5106805;28;20298;-65
2023/05/29 11:30:55;;;;;;;;;;;12.40;96.00;;;;;;5095628;28;19927;-66
2023/05/29 11:33:26;;;;;;;;;;;12.50;95.90;;;;;;5095576;28;19935;-64
2023/05/29 11:35:55;;;;;;;;;;;12.70;95.90;;;;;;5095370;28;20398;-64
2023/05/29 11:38:22;;;;;;;;;;;12.80;95.60;;;;;;5095841;28;19908;-65
2023/05/29 11:40:49;;;;;;;;;;;12.80;95.60;;;;;;5095812;28;20361;-66
2023/05/29 11:43:16;;;;;;;;;;;12.90;95.40;;;;;;5096142;28;19912;-66
2023/05/29 11:45:43;;;;;;;;;;;13.00;95.50;;;;;;5116030;28;20041;-67
2023/05/29 11:48:09;;;;;;;;;;;13.00;95.70;;;;;;5116232;28;19918;-65
2023/05/29 11:50:36;;;;;;;;;;;12.90;95.70;;;;;;5116139;28;19915;-64
2023/05/29 11:53:03;;;;;;;;;;;13.00;95.70;;;;;;5115497;28;19912;-66
2023/05/29 11:55:30;;;;;;;;;;;13.00;95.90;;;;;;5095070;28;19947;-63
2023/05/29 11:57:58;;;;;;;;;;;12.90;95.90;;;;;;5095174;28;19908;-64
2023/05/29 12:00:25;;;;;;;;;;;12.90;95.90;;;;;;5095563;28;19912;-65
2023/05/29 12:02:51;;;;;;;;;;;12.80;96.20;;;;;;5095557;28;19908;-64
2023/05/29 12:05:19;;;;;;;;;;;12.90;96.00;;;;;;5095686;28;19908;-66
2023/05/29 12:07:49;;;;;;;;;;;12.90;95.90;;;;;;5094737;28;20312;-64
2023/05/29 12:10:17;;;;;;;;;;;12.90;96.20;;;;;;5096778;28;20311;-63
2023/05/29 12:12:54;;;;;;;;;;;12.90;96.40;;;;;;5114773;28;20284;-64
2023/05/29 12:15:21;;;;;;;;;;;12.90;96.40;;;;;;5114980;28;19908;-64
2023/05/29 12:17:51;;;;;;;;;;;12.90;96.60;;;;;;5115433;28;19907;-65
2023/05/29 12:20:19;;;;;;;;;;;12.90;96.70;;;;;;5113474;28;19960;-65
2023/05/29 12:22:46;;;;;;;;;;;12.90;96.80;;;;;;5094895;28;20478;-67
2023/05/29 12:25:13;;;;;;;;;;;12.90;96.90;;;;;;5094864;28;19913;-65
2023/05/29 12:27:43;;;;;;;;;;;12.80;97.20;;;;;;5104643;28;19912;-65
2023/05/29 12:30:11;;;;;;;;;;;12.70;97.50;;;;;;5111189;28;19952;-66
2023/05/29 12:32:38;;;;;;;;;;;12.70;97.80;;;;;;5094472;28;19912;-64
2023/05/29 12:35:24;;;;;;;;;;;12.70;98.00;;;;;;5094337;28;20343;-62
2023/05/29 12:37:57;;;;;;;;;;;12.60;98.00;;;;;;5094667;28;19908;-66
2023/05/29 12:40:24;;;;;;;;;;;12.50;98.20;;;;;;5094499;28;20276;-66
2023/05/29 12:42:55;;;;;;;;;;;12.50;98.60;;;;;;5098241;28;19927;-66
2023/05/29 12:45:26;;;;;;;;;;;12.40;99.00;;;;;;5114803;28;19939;-65
2023/05/29 12:47:53;;;;;;;;;;;12.40;99.30;;;;;;5114562;28;19908;-66
2023/05/29 12:50:24;;;;;;;;;;;12.40;99.40;;;;;;5094274;28;19912;-66
2023/05/29 12:53:10;;;;;;;;;;;12.40;99.30;;;;;;5094428;28;20379;-66
2023/05/29 12:55:41;;;;;;;;;;;12.30;99.70;;;;;;5107293;28;19918;-65
2023/05/29 12:58:08;;;;;;;;;;;12.30;99.90;;;;;;5098875;28;19908;-65
2023/05/29 13:00:35;;;;;;;;;;;12.30;99.90;;;;;;5094633;28;19966;-66
2023/05/29 13:03:02;;;;;;;;;;;12.20;99.90;;;;;;5094380;28;19915;-66
2023/05/29 13:05:29;;;;;;;;;;;12.10;99.90;;;;;;5094199;28;19912;-64
2023/05/29 13:07:55;;;;;;;;;;;12.20;99.90;;;;;;5102844;28;19907;-63
2023/05/29 13:10:22;;;;;;;;;;;12.20;99.90;;;;;;5114537;28;19912;-63
2023/05/29 13:12:58;;;;;;;;;;;12.00;99.90;;;;;;5114772;28;20280;-64
2023/05/29 13:15:26;;;;;;;;;;;12.00;99.90;;;;;;5112780;28;19953;-63
2023/05/29 13:17:53;;;;;;;;;;;12.00;99.90;;;;;;5093614;28;19912;-64
2023/05/29 13:20:20;;;;;;;;;;;11.90;99.90;;;;;;5097938;28;19912;-65
2023/05/29 13:22:48;;;;;;;;;;;11.90;99.90;;;;;;5093877;28;19919;-63
2023/05/29 13:25:16;;;;;;;;;;;11.90;99.90;;;;;;5094009;28;19916;-62
2023/05/29 13:27:44;;;;;;;;;;;11.90;99.90;;;;;;5100289;28;19911;-64
2023/05/29 13:30:11;;;;;;;;;;;11.90;99.90;;;;;;5114060;28;19916;-63
2023/05/29 13:32:37;;;;;;;;;;;11.80;99.90;;;;;;5100513;28;20317;-63
2023/05/29 13:35:05;;;;;;;;;;;11.80;99.90;;;;;;5093739;28;19912;-65
2023/05/29 13:37:32;;;;;;;;;;;11.70;99.90;;;;;;5093878;28;19973;-65
2023/05/29 13:39:58;;;;;;;;;;;11.70;99.90;;;;;;5093845;28;19908;-66
2023/05/29 13:42:25;;;;;;;;;;;11.70;99.90;;;;;;5093492;28;20014;-64
2023/05/29 13:44:51;;;;;;;;;;;11.60;99.90;;;;;;5108633;28;19992;-65
2023/05/29 13:47:18;;;;;;;;;;;11.60;99.90;;;;;;5114295;28;19979;-65
2023/05/29 13:49:45;;;;;;;;;;;11.60;99.90;;;;;;5113982;28;19952;-65
2023/05/29 13:52:11;;;;;;;;;;;11.60;99.90;;;;;;5113674;28;20035;-65
2023/05/29 13:54:38;;;;;;;;;;;11.60;99.90;;;;;;5113692;28;19908;-63
2023/05/29 13:57:06;;;;;;;;;;;11.60;99.90;;;;;;5099643;28;19912;-64
2023/05/29 13:59:35;;;;;;;;;;;11.60;99.90;;;;;;5100637;28;19912;-65
2023/05/29 14:02:03;;;;;;;;;;;11.70;99.90;;;;;;5113748;28;19961;-64
2023/05/29 14:04:30;;;;;;;;;;;11.60;99.90;;;;;;5098946;28;19966;-65
2023/05/29 14:06:57;;;;;;;;;;;11.70;99.90;;;;;;5092892;28;19912;-63
2023/05/29 14:09:27;;;;;;;;;;;11.70;99.90;;;;;;5093326;28;19912;-66
2023/05/29 14:11:58;;;;;;;;;;;11.70;99.90;;;;;;5094201;28;20034;-65
2023/05/29 14:14:25;;;;;;;;;;;11.70;99.90;;;;;;5074657;28;19912;-64
2023/05/29 14:16:52;;;;;;;;;;;11.80;99.90;;;;;;5093135;28;19995;-65
2023/05/29 14:19:19;;;;;;;;;;;11.80;99.90;;;;;;5092840;28;19908;-65
2023/05/29 14:21:46;;;;;;;;;;;11.80;99.90;;;;;;5102913;28;19908;-64